Aérodrome :
LOGIN :

S'inscrire | Disclaimer

   EN    FR    IT 

 










Légende :    VFR   VFR Marginal   IFR   IFR Intensif   IFR Très Intensif
Visi : 
Plafond : 
>= 8 km
>= 3000ft
5 à 8 km
1000 à 3000 ft
1500m à 5 km
500 à 1000 ft
800 à 1500m
200 à 500 ft
< 800m
< 200 ft
Symboles :   Orages  Brouillard  Fortes neiges  Fortes précipitations  Vent > 20 kt
SIGMETs :   Divers  Orages  Givrage  Turbulence  Onde Orograph.  Cendres Volcan.







- Altitude de l'aérodrome : 39 ft
- Code IATA : TRS


LIPQ - Friuli Venezia Giulia Apt. Trieste

DERNIER METAR :
  • 210050Z AUTO VRB01KT 2700 BR OVC037/// 13/12 Q1021

METARs EXPIRÉS :
  • 210020Z AUTO 24003KT 4400 BR OVC032/// 13/12 Q1021
  • 202350Z AUTO 01003KT 5000 BR OVC034/// 13/12 Q1021
  • 202320Z AUTO VRB02KT 4600 BR OVC035/// 13/12 Q1021
  • 202250Z AUTO VRB01KT 4400 BR OVC035/// 13/12 Q1021
  • 202220Z AUTO 02005KT 4500 BR OVC033/// 13/12 Q1021

TAF TAF LIPQ
Valide du 21 à 00h jusqu'au 22 à 00h UTC


202300Z 2100/2124 VRB05KT 3000 BR BKN005
TEMPO 2100/2107 0700 FG
BECMG 2110/2112 6000 SCT020
BECMG 2118/2120 2000
Pas de NOTAMs connus pour ce terrain.



MET'MAP, la Météo Aéronautique d'un coup d'oeil ! - Copyright ORBIFLY Décembre 2007 - Disclaimer

ORBIFLY MET'MAP TEAM :

Programmation & Développement : Alexandra Zaïnal
Conception & Développement : Baudouin d'Aumeries
Co-Programmation & Développement : Marc-Olivier Méhu
Soutien technique & logistique : Manuel Goepfert

Contact : metmap@orbifly.com




SOURCES & CREDITS :

   NOAA